Kendalia, Texas
Current Conditions -  °F | °C
As of 12:55 PM on Friday 24 Oct 2014 (Local Time) from K5C1 Reporting Station
Clear Clear  
Wind Chill: 81°   Ceiling: Unl
Heat Index: 81°   Visibility: 10mi
Dew Point: 55°   Wind: 6mph
Humidity: 42%   Direction: 210°SSW
Pressure: 30.19"   Gusts: NA
Location:  29.97°N, 98.52°W
Report Text: K5C1 241755Z AUTO 21005KT 10SM CLR 27/13 A3019 RMK AO1
Loading
Personal Weather Stations






























Interactive Weather Map
Tropical Storm Tracking
New forecast layout! Learn more

10-Day Weather Forecast

Advertisements
Track Severe Weather on mobile